sensor_id;sensor_type;location;lat;lon;timestamp;P1;durP1;ratioP1;P2;durP2;ratioP2
70450;SDS011;58869;51.982;4.450;2022-10-31T00:00:16;2.53;;;2.52;;
70450;SDS011;58869;51.982;4.450;2022-10-31T00:02:42;2.27;;;2.27;;
70450;SDS011;58869;51.982;4.450;2022-10-31T00:05:08;2.38;;;2.38;;
70450;SDS011;58869;51.982;4.450;2022-10-31T00:07:33;2.52;;;2.52;;
70450;SDS011;58869;51.982;4.450;2022-10-31T00:09:59;2.63;;;2.63;;
70450;SDS011;58869;51.982;4.450;2022-10-31T00:12:25;2.30;;;2.30;;
70450;SDS011;58869;51.982;4.450;2022-10-31T00:14:52;2.42;;;2.42;;
70450;SDS011;58869;51.982;4.450;2022-10-31T00:17:17;2.49;;;2.49;;
70450;SDS011;58869;51.982;4.450;2022-10-31T00:19:43;2.51;;;2.51;;
70450;SDS011;58869;51.982;4.450;2022-10-31T00:22:08;2.80;;;2.80;;
70450;SDS011;58869;51.982;4.450;2022-10-31T00:24:33;2.67;;;2.67;;
70450;SDS011;58869;51.982;4.450;2022-10-31T00:26:59;2.73;;;2.73;;
70450;SDS011;58869;51.982;4.450;2022-10-31T00:29:24;2.73;;;2.73;;
70450;SDS011;58869;51.982;4.450;2022-10-31T00:31:50;2.86;;;2.86;;
70450;SDS011;58869;51.982;4.450;2022-10-31T00:34:17;2.92;;;2.90;;
70450;SDS011;58869;51.982;4.450;2022-10-31T00:36:42;2.88;;;2.88;;
70450;SDS011;58869;51.982;4.450;2022-10-31T00:39:08;2.99;;;2.99;;
70450;SDS011;58869;51.982;4.450;2022-10-31T00:41:33;3.19;;;3.17;;
70450;SDS011;58869;51.982;4.450;2022-10-31T00:43:59;3.33;;;3.32;;
70450;SDS011;58869;51.982;4.450;2022-10-31T00:46:24;3.34;;;3.34;;
70450;SDS011;58869;51.982;4.450;2022-10-31T00:48:50;3.13;;;3.13;;
70450;SDS011;58869;51.982;4.450;2022-10-31T00:51:15;3.26;;;3.26;;
70450;SDS011;58869;51.982;4.450;2022-10-31T00:53:40;3.48;;;3.48;;
70450;SDS011;58869;51.982;4.450;2022-10-31T00:56:06;3.46;;;3.46;;
70450;SDS011;58869;51.982;4.450;2022-10-31T00:58:32;3.54;;;3.54;;
70450;SDS011;58869;51.982;4.450;2022-10-31T01:00:57;3.62;;;3.62;;
70450;SDS011;58869;51.982;4.450;2022-10-31T01:03:23;3.72;;;3.72;;
70450;SDS011;58869;51.982;4.450;2022-10-31T01:08:26;3.37;;;3.37;;
70450;SDS011;58869;51.982;4.450;2022-10-31T01:10:59;3.88;;;3.88;;
70450;SDS011;58869;51.982;4.450;2022-10-31T01:13:31;3.99;;;3.99;;
70450;SDS011;58869;51.982;4.450;2022-10-31T01:15:57;4.12;;;4.12;;
70450;SDS011;58869;51.982;4.450;2022-10-31T01:18:24;4.02;;;4.00;;
70450;SDS011;58869;51.982;4.450;2022-10-31T01:23:31;4.32;;;4.31;;
70450;SDS011;58869;51.982;4.450;2022-10-31T01:28:37;4.56;;;4.56;;
70450;SDS011;58869;51.982;4.450;2022-10-31T01:31:05;4.72;;;4.72;;
70450;SDS011;58869;51.982;4.450;2022-10-31T01:33:32;4.76;;;4.76;;
70450;SDS011;58869;51.982;4.450;2022-10-31T01:35:58;4.87;;;4.87;;
70450;SDS011;58869;51.982;4.450;2022-10-31T01:38:25;4.75;;;4.74;;
70450;SDS011;58869;51.982;4.450;2022-10-31T01:40:51;4.72;;;4.72;;
70450;SDS011;58869;51.982;4.450;2022-10-31T01:43:16;4.51;;;4.48;;
70450;SDS011;58869;51.982;4.450;2022-10-31T01:45:42;4.99;;;4.95;;
70450;SDS011;58869;51.982;4.450;2022-10-31T01:48:16;5.08;;;5.05;;
70450;SDS011;58869;51.982;4.450;2022-10-31T01:50:45;5.04;;;5.04;;
70450;SDS011;58869;51.982;4.450;2022-10-31T01:53:14;4.87;;;4.87;;
70450;SDS011;58869;51.982;4.450;2022-10-31T01:55:41;4.56;;;4.56;;
70450;SDS011;58869;51.982;4.450;2022-10-31T01:58:14;4.81;;;4.81;;
70450;SDS011;58869;51.982;4.450;2022-10-31T02:00:45;5.23;;;5.23;;
70450;SDS011;58869;51.982;4.450;2022-10-31T02:03:15;5.08;;;5.08;;
70450;SDS011;58869;51.982;4.450;2022-10-31T02:05:41;5.30;;;5.30;;
70450;SDS011;58869;51.982;4.450;2022-10-31T02:10:38;5.76;;;5.76;;
70450;SDS011;58869;51.982;4.450;2022-10-31T02:13:06;5.62;;;5.62;;
70450;SDS011;58869;51.982;4.450;2022-10-31T02:15:32;5.90;;;5.90;;
70450;SDS011;58869;51.982;4.450;2022-10-31T02:18:00;5.91;;;5.91;;
70450;SDS011;58869;51.982;4.450;2022-10-31T02:20:27;5.84;;;5.84;;
70450;SDS011;58869;51.982;4.450;2022-10-31T02:29:27;6.57;;;6.57;;
70450;SDS011;58869;51.982;4.450;2022-10-31T02:37:25;5.18;;;5.18;;
70450;SDS011;58869;51.982;4.450;2022-10-31T02:40:17;3.84;;;3.84;;
70450;SDS011;58869;51.982;4.450;2022-10-31T02:42:51;5.41;;;5.41;;
70450;SDS011;58869;51.982;4.450;2022-10-31T02:48:11;7.18;;;7.18;;
70450;SDS011;58869;51.982;4.450;2022-10-31T02:50:45;7.73;;;7.73;;
70450;SDS011;58869;51.982;4.450;2022-10-31T02:53:18;7.85;;;7.85;;
70450;SDS011;58869;51.982;4.450;2022-10-31T02:55:49;7.97;;;7.97;;
70450;SDS011;58869;51.982;4.450;2022-10-31T02:58:21;9.40;;;9.39;;
70450;SDS011;58869;51.982;4.450;2022-10-31T03:03:43;9.31;;;9.31;;
70450;SDS011;58869;51.982;4.450;2022-10-31T03:06:35;9.86;;;9.86;;
70450;SDS011;58869;51.982;4.450;2022-10-31T03:12:15;10.16;;;10.16;;
70450;SDS011;58869;51.982;4.450;2022-10-31T03:15:10;10.29;;;10.29;;
70450;SDS011;58869;51.982;4.450;2022-10-31T03:20:16;11.12;;;11.07;;
70450;SDS011;58869;51.982;4.450;2022-10-31T03:22:50;11.54;;;11.54;;
70450;SDS011;58869;51.982;4.450;2022-10-31T03:25:17;12.08;;;12.08;;
70450;SDS011;58869;51.982;4.450;2022-10-31T03:27:43;12.09;;;12.09;;
70450;SDS011;58869;51.982;4.450;2022-10-31T03:30:11;12.66;;;12.66;;
70450;SDS011;58869;51.982;4.450;2022-10-31T03:32:51;13.17;;;13.16;;
70450;SDS011;58869;51.982;4.450;2022-10-31T03:35:20;13.51;;;13.51;;
70450;SDS011;58869;51.982;4.450;2022-10-31T03:37:49;13.41;;;13.41;;
70450;SDS011;58869;51.982;4.450;2022-10-31T03:40:16;13.30;;;13.30;;
70450;SDS011;58869;51.982;4.450;2022-10-31T03:42:48;13.19;;;13.19;;
70450;SDS011;58869;51.982;4.450;2022-10-31T03:45:26;13.08;;;13.08;;
70450;SDS011;58869;51.982;4.450;2022-10-31T03:47:54;13.81;;;13.71;;
70450;SDS011;58869;51.982;4.450;2022-10-31T03:50:23;13.69;;;13.69;;
70450;SDS011;58869;51.982;4.450;2022-10-31T03:55:42;14.41;;;14.41;;
70450;SDS011;58869;51.982;4.450;2022-10-31T03:58:21;14.26;;;14.26;;
70450;SDS011;58869;51.982;4.450;2022-10-31T04:00:52;14.67;;;14.67;;
70450;SDS011;58869;51.982;4.450;2022-10-31T04:03:25;14.70;;;14.68;;
70450;SDS011;58869;51.982;4.450;2022-10-31T04:05:55;14.90;;;14.74;;
70450;SDS011;58869;51.982;4.450;2022-10-31T04:08:24;15.03;;;15.03;;
70450;SDS011;58869;51.982;4.450;2022-10-31T04:10:54;14.75;;;14.75;;
70450;SDS011;58869;51.982;4.450;2022-10-31T04:13:23;15.25;;;15.25;;
70450;SDS011;58869;51.982;4.450;2022-10-31T04:15:54;15.14;;;15.14;;
70450;SDS011;58869;51.982;4.450;2022-10-31T04:18:22;15.06;;;15.05;;
70450;SDS011;58869;51.982;4.450;2022-10-31T04:20:48;14.77;;;14.71;;
70450;SDS011;58869;51.982;4.450;2022-10-31T04:23:24;14.72;;;14.65;;
70450;SDS011;58869;51.982;4.450;2022-10-31T04:25:50;14.80;;;14.52;;
70450;SDS011;58869;51.982;4.450;2022-10-31T04:28:16;14.93;;;14.88;;
70450;SDS011;58869;51.982;4.450;2022-10-31T04:30:41;14.84;;;14.84;;
70450;SDS011;58869;51.982;4.450;2022-10-31T04:33:07;14.54;;;14.53;;
70450;SDS011;58869;51.982;4.450;2022-10-31T04:35:32;14.54;;;14.47;;
70450;SDS011;58869;51.982;4.450;2022-10-31T04:37:58;14.71;;;14.71;;
70450;SDS011;58869;51.982;4.450;2022-10-31T04:40:23;14.14;;;14.14;;
70450;SDS011;58869;51.982;4.450;2022-10-31T04:42:49;14.55;;;14.55;;
70450;SDS011;58869;51.982;4.450;2022-10-31T04:45:14;14.23;;;14.18;;
70450;SDS011;58869;51.982;4.450;2022-10-31T04:47:40;14.14;;;14.10;;
70450;SDS011;58869;51.982;4.450;2022-10-31T04:50:05;14.94;;;14.68;;
70450;SDS011;58869;51.982;4.450;2022-10-31T04:52:31;14.17;;;14.17;;
70450;SDS011;58869;51.982;4.450;2022-10-31T04:54:56;14.82;;;14.82;;
70450;SDS011;58869;51.982;4.450;2022-10-31T04:57:21;15.13;;;15.13;;
70450;SDS011;58869;51.982;4.450;2022-10-31T04:59:47;14.86;;;14.86;;
70450;SDS011;58869;51.982;4.450;2022-10-31T05:02:12;15.64;;;15.64;;
70450;SDS011;58869;51.982;4.450;2022-10-31T05:04:40;15.41;;;15.41;;
70450;SDS011;58869;51.982;4.450;2022-10-31T05:07:06;15.56;;;15.56;;
70450;SDS011;58869;51.982;4.450;2022-10-31T05:09:32;16.05;;;16.03;;
70450;SDS011;58869;51.982;4.450;2022-10-31T05:11:57;16.13;;;16.13;;
70450;SDS011;58869;51.982;4.450;2022-10-31T05:14:23;15.74;;;15.74;;
70450;SDS011;58869;51.982;4.450;2022-10-31T05:16:51;15.77;;;15.77;;
70450;SDS011;58869;51.982;4.450;2022-10-31T05:19:16;15.69;;;15.69;;
70450;SDS011;58869;51.982;4.450;2022-10-31T05:21:42;16.13;;;16.12;;
70450;SDS011;58869;51.982;4.450;2022-10-31T05:24:07;15.67;;;15.67;;
70450;SDS011;58869;51.982;4.450;2022-10-31T05:26:33;15.30;;;15.29;;
70450;SDS011;58869;51.982;4.450;2022-10-31T05:28:59;15.74;;;15.63;;
70450;SDS011;58869;51.982;4.450;2022-10-31T05:31:24;15.30;;;15.30;;
70450;SDS011;58869;51.982;4.450;2022-10-31T05:33:49;14.96;;;14.94;;
70450;SDS011;58869;51.982;4.450;2022-10-31T05:36:15;14.49;;;14.49;;
70450;SDS011;58869;51.982;4.450;2022-10-31T05:38:40;13.87;;;13.86;;
70450;SDS011;58869;51.982;4.450;2022-10-31T05:41:06;12.46;;;12.38;;
70450;SDS011;58869;51.982;4.450;2022-10-31T05:43:31;10.96;;;10.92;;
70450;SDS011;58869;51.982;4.450;2022-10-31T05:45:57;12.03;;;12.03;;
70450;SDS011;58869;51.982;4.450;2022-10-31T05:48:22;13.31;;;13.29;;
70450;SDS011;58869;51.982;4.450;2022-10-31T05:50:48;13.77;;;13.77;;
70450;SDS011;58869;51.982;4.450;2022-10-31T05:53:14;13.06;;;13.06;;
70450;SDS011;58869;51.982;4.450;2022-10-31T05:55:41;13.63;;;13.63;;
70450;SDS011;58869;51.982;4.450;2022-10-31T05:58:07;13.79;;;13.79;;
70450;SDS011;58869;51.982;4.450;2022-10-31T06:00:33;13.60;;;13.60;;
70450;SDS011;58869;51.982;4.450;2022-10-31T06:03:01;13.74;;;13.74;;
70450;SDS011;58869;51.982;4.450;2022-10-31T06:05:28;14.50;;;14.48;;
70450;SDS011;58869;51.982;4.450;2022-10-31T06:07:54;14.31;;;14.30;;
70450;SDS011;58869;51.982;4.450;2022-10-31T06:10:20;15.12;;;15.12;;
70450;SDS011;58869;51.982;4.450;2022-10-31T06:12:46;15.12;;;15.12;;
70450;SDS011;58869;51.982;4.450;2022-10-31T06:15:12;14.69;;;14.58;;
70450;SDS011;58869;51.982;4.450;2022-10-31T06:17:38;14.05;;;14.05;;
70450;SDS011;58869;51.982;4.450;2022-10-31T06:20:04;14.64;;;14.60;;
70450;SDS011;58869;51.982;4.450;2022-10-31T06:22:30;15.69;;;15.64;;
70450;SDS011;58869;51.982;4.450;2022-10-31T06:24:56;16.00;;;15.89;;
70450;SDS011;58869;51.982;4.450;2022-10-31T06:27:23;16.38;;;16.38;;
70450;SDS011;58869;51.982;4.450;2022-10-31T06:29:50;17.39;;;17.38;;
70450;SDS011;58869;51.982;4.450;2022-10-31T06:32:19;17.95;;;17.81;;
70450;SDS011;58869;51.982;4.450;2022-10-31T06:34:44;18.27;;;18.21;;
70450;SDS011;58869;51.982;4.450;2022-10-31T06:37:13;18.39;;;18.33;;
70450;SDS011;58869;51.982;4.450;2022-10-31T06:39:39;19.27;;;19.17;;
70450;SDS011;58869;51.982;4.450;2022-10-31T06:42:04;19.21;;;19.19;;
70450;SDS011;58869;51.982;4.450;2022-10-31T06:44:30;19.33;;;19.31;;
70450;SDS011;58869;51.982;4.450;2022-10-31T06:46:56;19.22;;;19.12;;
70450;SDS011;58869;51.982;4.450;2022-10-31T06:49:21;19.21;;;19.06;;
70450;SDS011;58869;51.982;4.450;2022-10-31T06:51:47;19.11;;;19.06;;
70450;SDS011;58869;51.982;4.450;2022-10-31T06:54:13;18.99;;;18.90;;
70450;SDS011;58869;51.982;4.450;2022-10-31T06:56:39;19.66;;;19.52;;
70450;SDS011;58869;51.982;4.450;2022-10-31T06:59:04;19.77;;;19.66;;
70450;SDS011;58869;51.982;4.450;2022-10-31T07:01:30;20.26;;;20.23;;
70450;SDS011;58869;51.982;4.450;2022-10-31T07:03:55;20.16;;;20.15;;
70450;SDS011;58869;51.982;4.450;2022-10-31T07:06:21;20.21;;;20.14;;
70450;SDS011;58869;51.982;4.450;2022-10-31T07:08:46;20.33;;;20.33;;
70450;SDS011;58869;51.982;4.450;2022-10-31T07:11:11;20.95;;;20.81;;
70450;SDS011;58869;51.982;4.450;2022-10-31T07:13:37;20.45;;;20.33;;
70450;SDS011;58869;51.982;4.450;2022-10-31T07:16:03;20.70;;;20.66;;
70450;SDS011;58869;51.982;4.450;2022-10-31T07:18:31;21.30;;;21.30;;
70450;SDS011;58869;51.982;4.450;2022-10-31T07:20:58;21.47;;;21.47;;
70450;SDS011;58869;51.982;4.450;2022-10-31T07:23:23;24.01;;;23.81;;
70450;SDS011;58869;51.982;4.450;2022-10-31T07:25:54;30.68;;;30.56;;
70450;SDS011;58869;51.982;4.450;2022-10-31T07:28:23;35.72;;;35.22;;
70450;SDS011;58869;51.982;4.450;2022-10-31T07:30:49;40.42;;;39.63;;
70450;SDS011;58869;51.982;4.450;2022-10-31T07:33:16;40.78;;;40.02;;
70450;SDS011;58869;51.982;4.450;2022-10-31T07:35:41;44.44;;;43.54;;
70450;SDS011;58869;51.982;4.450;2022-10-31T07:38:08;38.43;;;37.48;;
70450;SDS011;58869;51.982;4.450;2022-10-31T07:40:34;28.92;;;28.38;;
70450;SDS011;58869;51.982;4.450;2022-10-31T07:43:00;22.97;;;22.96;;
70450;SDS011;58869;51.982;4.450;2022-10-31T07:45:25;23.30;;;22.98;;
70450;SDS011;58869;51.982;4.450;2022-10-31T07:47:51;22.09;;;22.02;;
70450;SDS011;58869;51.982;4.450;2022-10-31T07:50:21;21.91;;;21.87;;
70450;SDS011;58869;51.982;4.450;2022-10-31T07:52:58;22.16;;;22.15;;
70450;SDS011;58869;51.982;4.450;2022-10-31T07:55:27;21.70;;;21.68;;
70450;SDS011;58869;51.982;4.450;2022-10-31T07:58:00;22.05;;;21.90;;
70450;SDS011;58869;51.982;4.450;2022-10-31T08:00:39;21.56;;;21.55;;
70450;SDS011;58869;51.982;4.450;2022-10-31T08:03:07;20.84;;;20.83;;
70450;SDS011;58869;51.982;4.450;2022-10-31T08:05:37;21.41;;;21.40;;
70450;SDS011;58869;51.982;4.450;2022-10-31T08:08:03;21.72;;;21.62;;
70450;SDS011;58869;51.982;4.450;2022-10-31T08:10:29;22.39;;;21.95;;
70450;SDS011;58869;51.982;4.450;2022-10-31T08:12:56;22.28;;;22.22;;
70450;SDS011;58869;51.982;4.450;2022-10-31T08:15:22;22.30;;;22.27;;
70450;SDS011;58869;51.982;4.450;2022-10-31T08:17:48;23.45;;;23.32;;
70450;SDS011;58869;51.982;4.450;2022-10-31T08:20:13;23.78;;;23.66;;
70450;SDS011;58869;51.982;4.450;2022-10-31T08:22:39;23.27;;;23.27;;
70450;SDS011;58869;51.982;4.450;2022-10-31T08:25:04;23.30;;;23.29;;
70450;SDS011;58869;51.982;4.450;2022-10-31T08:27:30;23.25;;;23.08;;
70450;SDS011;58869;51.982;4.450;2022-10-31T08:29:55;24.11;;;23.79;;
70450;SDS011;58869;51.982;4.450;2022-10-31T08:32:21;23.87;;;23.65;;
70450;SDS011;58869;51.982;4.450;2022-10-31T08:34:46;24.12;;;23.93;;
70450;SDS011;58869;51.982;4.450;2022-10-31T08:37:12;23.99;;;23.95;;
70450;SDS011;58869;51.982;4.450;2022-10-31T08:39:37;23.85;;;23.72;;
70450;SDS011;58869;51.982;4.450;2022-10-31T08:42:03;23.39;;;23.20;;
70450;SDS011;58869;51.982;4.450;2022-10-31T08:44:28;21.89;;;21.86;;
70450;SDS011;58869;51.982;4.450;2022-10-31T08:46:54;20.79;;;20.65;;
70450;SDS011;58869;51.982;4.450;2022-10-31T08:49:20;20.91;;;20.83;;
70450;SDS011;58869;51.982;4.450;2022-10-31T08:51:47;20.64;;;20.23;;
70450;SDS011;58869;51.982;4.450;2022-10-31T08:54:13;20.46;;;20.30;;
70450;SDS011;58869;51.982;4.450;2022-10-31T08:56:38;20.67;;;20.41;;
70450;SDS011;58869;51.982;4.450;2022-10-31T08:59:04;20.70;;;20.56;;
70450;SDS011;58869;51.982;4.450;2022-10-31T09:01:29;19.63;;;19.55;;
70450;SDS011;58869;51.982;4.450;2022-10-31T09:03:55;19.75;;;19.50;;
70450;SDS011;58869;51.982;4.450;2022-10-31T09:06:20;18.59;;;18.38;;
70450;SDS011;58869;51.982;4.450;2022-10-31T09:08:46;18.41;;;18.32;;
70450;SDS011;58869;51.982;4.450;2022-10-31T09:11:11;17.53;;;17.41;;
70450;SDS011;58869;51.982;4.450;2022-10-31T09:13:37;18.62;;;18.27;;
70450;SDS011;58869;51.982;4.450;2022-10-31T09:16:02;18.66;;;18.37;;
70450;SDS011;58869;51.982;4.450;2022-10-31T09:18:28;18.75;;;18.61;;
70450;SDS011;58869;51.982;4.450;2022-10-31T09:20:54;18.51;;;18.32;;
70450;SDS011;58869;51.982;4.450;2022-10-31T09:23:23;18.80;;;18.59;;
70450;SDS011;58869;51.982;4.450;2022-10-31T09:25:49;19.33;;;19.27;;
70450;SDS011;58869;51.982;4.450;2022-10-31T09:28:17;18.34;;;18.22;;
70450;SDS011;58869;51.982;4.450;2022-10-31T09:30:48;18.37;;;18.19;;
70450;SDS011;58869;51.982;4.450;2022-10-31T09:33:15;17.48;;;17.28;;
70450;SDS011;58869;51.982;4.450;2022-10-31T09:35:41;17.56;;;17.40;;
70450;SDS011;58869;51.982;4.450;2022-10-31T09:38:17;17.24;;;17.20;;
70450;SDS011;58869;51.982;4.450;2022-10-31T09:43:41;18.39;;;18.14;;
70450;SDS011;58869;51.982;4.450;2022-10-31T09:48:46;18.50;;;18.28;;
70450;SDS011;58869;51.982;4.450;2022-10-31T09:51:17;18.58;;;18.43;;
70450;SDS011;58869;51.982;4.450;2022-10-31T09:56:31;18.20;;;18.16;;
70450;SDS011;58869;51.982;4.450;2022-10-31T09:58:58;18.09;;;17.96;;
70450;SDS011;58869;51.982;4.450;2022-10-31T10:06:54;18.28;;;18.21;;
70450;SDS011;58869;51.982;4.450;2022-10-31T10:09:21;18.05;;;18.03;;
70450;SDS011;58869;51.982;4.450;2022-10-31T10:15:00;19.31;;;19.23;;
70450;SDS011;58869;51.982;4.450;2022-10-31T10:17:47;23.87;;;23.53;;
70450;SDS011;58869;51.982;4.450;2022-10-31T10:20:37;22.98;;;22.82;;
70450;SDS011;58869;51.982;4.450;2022-10-31T10:25:47;16.88;;;16.83;;
70450;SDS011;58869;51.982;4.450;2022-10-31T10:28:28;15.80;;;15.80;;
70450;SDS011;58869;51.982;4.450;2022-10-31T10:31:05;15.45;;;15.44;;
70450;SDS011;58869;51.982;4.450;2022-10-31T10:33:40;14.28;;;14.25;;
70450;SDS011;58869;51.982;4.450;2022-10-31T10:39:14;12.63;;;12.62;;
70450;SDS011;58869;51.982;4.450;2022-10-31T10:41:47;12.02;;;12.02;;
70450;SDS011;58869;51.982;4.450;2022-10-31T10:44:33;12.69;;;12.69;;
70450;SDS011;58869;51.982;4.450;2022-10-31T10:47:17;12.19;;;12.18;;
70450;SDS011;58869;51.982;4.450;2022-10-31T10:50:06;10.82;;;10.81;;
70450;SDS011;58869;51.982;4.450;2022-10-31T10:55:28;13.48;;;13.45;;
70450;SDS011;58869;51.982;4.450;2022-10-31T10:58:03;14.34;;;14.27;;
70450;SDS011;58869;51.982;4.450;2022-10-31T11:00:35;15.28;;;15.19;;
70450;SDS011;58869;51.982;4.450;2022-10-31T11:03:05;16.26;;;16.11;;
70450;SDS011;58869;51.982;4.450;2022-10-31T11:05:50;18.85;;;18.54;;
70450;SDS011;58869;51.982;4.450;2022-10-31T11:08:26;19.64;;;19.28;;
70450;SDS011;58869;51.982;4.450;2022-10-31T11:14:03;21.10;;;20.80;;
70450;SDS011;58869;51.982;4.450;2022-10-31T11:21:47;22.94;;;22.50;;
70450;SDS011;58869;51.982;4.450;2022-10-31T11:24:17;22.76;;;22.45;;
70450;SDS011;58869;51.982;4.450;2022-10-31T11:26:45;23.23;;;22.94;;
70450;SDS011;58869;51.982;4.450;2022-10-31T11:29:25;23.62;;;23.31;;
70450;SDS011;58869;51.982;4.450;2022-10-31T11:31:55;24.77;;;24.51;;
70450;SDS011;58869;51.982;4.450;2022-10-31T11:34:38;25.76;;;25.65;;
70450;SDS011;58869;51.982;4.450;2022-10-31T11:39:41;26.62;;;26.25;;
70450;SDS011;58869;51.982;4.450;2022-10-31T11:42:09;26.62;;;26.23;;
70450;SDS011;58869;51.982;4.450;2022-10-31T11:44:35;26.05;;;25.64;;
70450;SDS011;58869;51.982;4.450;2022-10-31T11:47:02;26.24;;;25.92;;
70450;SDS011;58869;51.982;4.450;2022-10-31T11:49:39;26.93;;;26.51;;
70450;SDS011;58869;51.982;4.450;2022-10-31T11:52:07;27.15;;;26.64;;
70450;SDS011;58869;51.982;4.450;2022-10-31T11:57:23;25.95;;;25.65;;
70450;SDS011;58869;51.982;4.450;2022-10-31T11:59:59;27.72;;;27.23;;
70450;SDS011;58869;51.982;4.450;2022-10-31T12:02:26;27.40;;;26.76;;
70450;SDS011;58869;51.982;4.450;2022-10-31T12:07:33;27.39;;;26.95;;
70450;SDS011;58869;51.982;4.450;2022-10-31T12:09:59;26.47;;;25.98;;
70450;SDS011;58869;51.982;4.450;2022-10-31T12:12:40;26.94;;;26.37;;
70450;SDS011;58869;51.982;4.450;2022-10-31T12:23:09;27.58;;;27.23;;
70450;SDS011;58869;51.982;4.450;2022-10-31T12:25:51;27.57;;;27.00;;
70450;SDS011;58869;51.982;4.450;2022-10-31T12:28:46;27.24;;;26.84;;
70450;SDS011;58869;51.982;4.450;2022-10-31T12:39:44;27.94;;;27.32;;
70450;SDS011;58869;51.982;4.450;2022-10-31T12:51:14;30.13;;;29.69;;
70450;SDS011;58869;51.982;4.450;2022-10-31T12:56:49;29.70;;;29.23;;
70450;SDS011;58869;51.982;4.450;2022-10-31T12:59:45;30.12;;;29.52;;
70450;SDS011;58869;51.982;4.450;2022-10-31T13:02:19;29.39;;;28.74;;
70450;SDS011;58869;51.982;4.450;2022-10-31T13:08:21;28.27;;;27.86;;
70450;SDS011;58869;51.982;4.450;2022-10-31T13:13:12;27.93;;;27.45;;
70450;SDS011;58869;51.982;4.450;2022-10-31T13:15:50;27.48;;;27.13;;
70450;SDS011;58869;51.982;4.450;2022-10-31T13:18:27;29.61;;;29.07;;
70450;SDS011;58869;51.982;4.450;2022-10-31T13:21:13;27.99;;;27.72;;
70450;SDS011;58869;51.982;4.450;2022-10-31T13:23:48;28.89;;;28.55;;
70450;SDS011;58869;51.982;4.450;2022-10-31T13:26:20;29.65;;;29.17;;
70450;SDS011;58869;51.982;4.450;2022-10-31T13:31:41;31.17;;;30.59;;
70450;SDS011;58869;51.982;4.450;2022-10-31T13:34:32;30.13;;;29.57;;
70450;SDS011;58869;51.982;4.450;2022-10-31T13:37:11;30.52;;;29.92;;
70450;SDS011;58869;51.982;4.450;2022-10-31T13:47:40;31.04;;;30.56;;
70450;SDS011;58869;51.982;4.450;2022-10-31T13:50:23;32.39;;;31.79;;
70450;SDS011;58869;51.982;4.450;2022-10-31T13:52:51;33.38;;;32.68;;
70450;SDS011;58869;51.982;4.450;2022-10-31T14:03:42;34.37;;;33.74;;
70450;SDS011;58869;51.982;4.450;2022-10-31T14:06:11;35.03;;;34.36;;
70450;SDS011;58869;51.982;4.450;2022-10-31T14:08:38;35.14;;;34.50;;
70450;SDS011;58869;51.982;4.450;2022-10-31T14:11:17;35.60;;;34.87;;
70450;SDS011;58869;51.982;4.450;2022-10-31T14:13:49;36.51;;;35.77;;
70450;SDS011;58869;51.982;4.450;2022-10-31T14:16:20;37.86;;;36.96;;
70450;SDS011;58869;51.982;4.450;2022-10-31T14:19:04;36.39;;;35.84;;
70450;SDS011;58869;51.982;4.450;2022-10-31T14:24:02;36.49;;;35.80;;
70450;SDS011;58869;51.982;4.450;2022-10-31T14:26:59;37.47;;;37.06;;
70450;SDS011;58869;51.982;4.450;2022-10-31T14:29:52;37.93;;;37.27;;
70450;SDS011;58869;51.982;4.450;2022-10-31T14:32:22;38.42;;;37.64;;
70450;SDS011;58869;51.982;4.450;2022-10-31T14:34:57;37.97;;;37.36;;
70450;SDS011;58869;51.982;4.450;2022-10-31T14:45:44;38.22;;;37.71;;
70450;SDS011;58869;51.982;4.450;2022-10-31T14:51:18;39.58;;;39.04;;
70450;SDS011;58869;51.982;4.450;2022-10-31T14:53:50;39.27;;;38.49;;
70450;SDS011;58869;51.982;4.450;2022-10-31T14:56:23;39.40;;;38.71;;
70450;SDS011;58869;51.982;4.450;2022-10-31T14:58:55;38.70;;;38.10;;
70450;SDS011;58869;51.982;4.450;2022-10-31T15:01:25;38.82;;;37.93;;
70450;SDS011;58869;51.982;4.450;2022-10-31T15:03:53;38.04;;;37.38;;
70450;SDS011;58869;51.982;4.450;2022-10-31T15:06:30;37.85;;;37.34;;
70450;SDS011;58869;51.982;4.450;2022-10-31T15:09:25;38.80;;;38.07;;
70450;SDS011;58869;51.982;4.450;2022-10-31T15:11:55;39.48;;;38.67;;
70450;SDS011;58869;51.982;4.450;2022-10-31T15:14:25;39.01;;;38.29;;
70450;SDS011;58869;51.982;4.450;2022-10-31T15:16:52;38.04;;;37.53;;
70450;SDS011;58869;51.982;4.450;2022-10-31T15:19:28;38.23;;;37.59;;
70450;SDS011;58869;51.982;4.450;2022-10-31T15:21:56;39.52;;;39.00;;
70450;SDS011;58869;51.982;4.450;2022-10-31T15:24:23;38.63;;;38.06;;
70450;SDS011;58869;51.982;4.450;2022-10-31T15:26:55;40.19;;;39.31;;
70450;SDS011;58869;51.982;4.450;2022-10-31T15:29:24;40.43;;;39.62;;
70450;SDS011;58869;51.982;4.450;2022-10-31T15:31:51;38.84;;;38.45;;
70450;SDS011;58869;51.982;4.450;2022-10-31T15:36:51;38.13;;;37.75;;
70450;SDS011;58869;51.982;4.450;2022-10-31T15:39:17;38.36;;;37.81;;
70450;SDS011;58869;51.982;4.450;2022-10-31T15:41:48;37.92;;;37.38;;
70450;SDS011;58869;51.982;4.450;2022-10-31T15:44:18;37.95;;;37.25;;
70450;SDS011;58869;51.982;4.450;2022-10-31T15:47:05;38.29;;;37.56;;
70450;SDS011;58869;51.982;4.450;2022-10-31T15:49:39;37.96;;;37.28;;
70450;SDS011;58869;51.982;4.450;2022-10-31T15:52:15;38.15;;;37.22;;
70450;SDS011;58869;51.982;4.450;2022-10-31T15:55:04;36.91;;;36.23;;
70450;SDS011;58869;51.982;4.450;2022-10-31T15:57:44;36.67;;;36.11;;
70450;SDS011;58869;51.982;4.450;2022-10-31T16:00:25;37.29;;;36.46;;
70450;SDS011;58869;51.982;4.450;2022-10-31T16:05:38;35.59;;;34.92;;
70450;SDS011;58869;51.982;4.450;2022-10-31T16:10:59;35.18;;;34.63;;
70450;SDS011;58869;51.982;4.450;2022-10-31T16:13:52;35.24;;;34.61;;
70450;SDS011;58869;51.982;4.450;2022-10-31T16:16:26;34.52;;;34.01;;
70450;SDS011;58869;51.982;4.450;2022-10-31T16:18:54;35.13;;;34.64;;
70450;SDS011;58869;51.982;4.450;2022-10-31T16:21:28;34.84;;;34.30;;
70450;SDS011;58869;51.982;4.450;2022-10-31T16:23:58;34.44;;;33.86;;
70450;SDS011;58869;51.982;4.450;2022-10-31T16:26:52;34.12;;;33.65;;
70450;SDS011;58869;51.982;4.450;2022-10-31T16:29:37;35.11;;;34.63;;
70450;SDS011;58869;51.982;4.450;2022-10-31T16:37:32;35.68;;;35.31;;
70450;SDS011;58869;51.982;4.450;2022-10-31T16:39:58;34.42;;;33.97;;
70450;SDS011;58869;51.982;4.450;2022-10-31T16:42:23;34.68;;;34.11;;
70450;SDS011;58869;51.982;4.450;2022-10-31T16:44:49;34.26;;;33.69;;
70450;SDS011;58869;51.982;4.450;2022-10-31T16:47:15;35.04;;;34.54;;
70450;SDS011;58869;51.982;4.450;2022-10-31T16:49:42;34.12;;;33.70;;
70450;SDS011;58869;51.982;4.450;2022-10-31T16:52:09;33.28;;;32.91;;
70450;SDS011;58869;51.982;4.450;2022-10-31T16:54:34;32.63;;;32.28;;
70450;SDS011;58869;51.982;4.450;2022-10-31T16:57:00;32.10;;;31.88;;
70450;SDS011;58869;51.982;4.450;2022-10-31T16:59:28;31.84;;;31.51;;
70450;SDS011;58869;51.982;4.450;2022-10-31T17:01:55;31.61;;;31.36;;
70450;SDS011;58869;51.982;4.450;2022-10-31T17:04:20;32.06;;;31.44;;
70450;SDS011;58869;51.982;4.450;2022-10-31T17:06:46;30.78;;;30.56;;
70450;SDS011;58869;51.982;4.450;2022-10-31T17:09:11;31.57;;;31.18;;
70450;SDS011;58869;51.982;4.450;2022-10-31T17:11:39;31.06;;;30.63;;
70450;SDS011;58869;51.982;4.450;2022-10-31T17:14:11;30.57;;;30.12;;
70450;SDS011;58869;51.982;4.450;2022-10-31T17:16:37;29.12;;;28.81;;
70450;SDS011;58869;51.982;4.450;2022-10-31T17:19:02;28.74;;;28.46;;